Blenheim, New Zealand
Current Conditions -  °F | °C
As of 10:30 AM on Thursday 23 Oct 2014 (Local Time) from NZWN Reporting Station
Overcast Overcast  
Wind Chill: 57°   Ceiling: 1900
Heat Index: 57°   Visibility: 6mi
Dew Point: 48°   Wind: 28mph
Humidity: 72%   Direction: 350°N
Pressure: 29.91"   Gusts: NA
Location:  41.52°S, 173.95°E
Report Text: NZWN 222230Z AUTO 35024KT 9999 OVC019/// 14/09 Q1013 NOSIG
Loading
Personal Weather Stations






























Interactive Weather Map
Tropical Storm Tracking
New forecast layout! Learn more

10-Day Weather Forecast

Advertisements
Track Severe Weather on mobile